Time;durP1;ratioP1;P1;durP2;ratioP2;P2;SDS_P1;SDS_P2;PMS_P1;PMS_P2;Temp;Humidity;BMP_temperature;BMP_pressure;BME280_temperature;BME280_humidity;BME280_pressure;Samples;Min_cycle;Max_cycle;Signal;HPM_P1;HPM_P2
2023/03/16 00:01:25;;;;;;;0.10;0.10;;;0.10;99.90;230.40;231737.00;;;;5034501;28;20219;-73
2023/03/16 00:03:54;;;;;;;0.10;0.10;;;0.20;99.90;230.40;231737.00;;;;5033839;28;20195;-74
2023/03/16 00:06:22;;;;;;;0.10;0.10;;;0.20;99.90;230.40;231737.00;;;;5032251;28;20195;-73
2023/03/16 00:08:57;;;;;;;0.10;0.10;;;0.10;99.90;230.40;231737.00;;;;5034948;28;20272;-74
2023/03/16 00:11:25;;;;;;;0.10;0.10;;;0.00;99.90;230.40;231737.00;;;;5033936;28;20589;-75
2023/03/16 00:13:54;;;;;;;0.10;0.10;;;0.00;99.90;230.40;231737.00;;;;5030611;28;20199;-74
2023/03/16 00:16:22;;;;;;;0.10;0.10;;;0.00;99.90;230.40;231737.00;;;;5027219;28;20202;-74
2023/03/16 00:18:50;;;;;;;0.10;0.10;;;-0.10;99.90;230.40;231737.00;;;;5029725;28;20225;-73
2023/03/16 00:21:20;;;;;;;0.10;0.10;;;-0.20;99.90;230.40;231737.00;;;;5030288;28;20223;-74
2023/03/16 00:23:47;;;;;;;0.10;0.10;;;-0.20;99.90;230.40;231737.00;;;;5035182;28;20678;-74
2023/03/16 00:26:15;;;;;;;0.10;0.10;;;-0.20;99.90;230.40;231737.00;;;;5031945;28;20199;-74
2023/03/16 00:28:43;;;;;;;0.20;0.20;;;-0.30;99.90;230.40;231737.00;;;;5040520;28;20223;-74
2023/03/16 00:31:12;;;;;;;0.20;0.20;;;-0.20;99.90;230.40;231737.00;;;;5033121;28;20203;-73
2023/03/16 00:33:45;;;;;;;0.10;0.10;;;-0.20;99.90;230.40;231737.00;;;;5035492;28;20199;-73
2023/03/16 00:36:13;;;;;;;0.10;0.10;;;-0.10;99.90;230.40;231737.00;;;;5033541;28;20735;-73
2023/03/16 00:38:44;;;;;;;0.10;0.10;;;-0.10;99.90;230.40;231737.00;;;;5039370;28;20222;-73
2023/03/16 00:41:14;;;;;;;0.10;0.10;;;-0.10;99.90;230.40;231737.00;;;;5030849;28;20231;-73
2023/03/16 00:43:44;;;;;;;0.10;0.10;;;-0.10;99.90;230.40;231737.00;;;;5029452;28;20242;-73
2023/03/16 00:46:16;;;;;;;0.10;0.10;;;-0.10;99.90;230.40;231737.00;;;;5032759;28;20199;-73
2023/03/16 00:48:46;;;;;;;0.10;0.10;;;0.00;99.90;230.40;231737.00;;;;5035405;28;20298;-73
2023/03/16 00:51:17;;;;;;;0.10;0.10;;;0.00;99.90;230.40;231737.00;;;;5033671;28;20210;-73
2023/03/16 00:53:47;;;;;;;0.10;0.10;;;0.00;99.90;230.40;231737.00;;;;5033494;28;20610;-72
2023/03/16 00:56:16;;;;;;;0.10;0.10;;;0.00;99.90;230.40;231737.00;;;;5028504;28;20199;-73
2023/03/16 00:58:44;;;;;;;0.10;0.10;;;0.10;99.90;230.40;231737.00;;;;5031464;28;20230;-72
2023/03/16 01:01:15;;;;;;;0.13;0.13;;;-0.10;99.90;230.40;231737.00;;;;5023599;28;20226;-74
2023/03/16 01:03:43;;;;;;;0.10;0.10;;;-0.30;99.90;230.40;231737.00;;;;5028894;28;20204;-73
2023/03/16 01:06:15;;;;;;;0.10;0.10;;;-0.20;99.90;230.40;231737.00;;;;5045100;28;20222;-72
2023/03/16 01:08:46;;;;;;;0.10;0.10;;;-0.20;99.90;230.40;231737.00;;;;5030631;28;20215;-73
2023/03/16 01:11:17;;;;;;;0.10;0.10;;;-0.10;99.90;230.40;231737.00;;;;5026815;28;20206;-73
2023/03/16 01:13:46;;;;;;;0.10;0.10;;;-0.10;99.90;230.40;231737.00;;;;5019761;28;20199;-73
2023/03/16 01:16:17;;;;;;;0.10;0.10;;;-0.20;99.90;230.40;231737.00;;;;5032667;28;20187;-74
2023/03/16 01:18:46;;;;;;;0.10;0.10;;;-0.30;99.90;230.40;231737.00;;;;5033742;28;20215;-73
2023/03/16 01:21:14;;;;;;;0.20;0.20;;;-0.30;99.90;230.40;231737.00;;;;5032382;28;20247;-73
2023/03/16 01:23:43;;;;;;;0.10;0.10;;;-0.30;99.90;230.40;231737.00;;;;5031007;28;20183;-73
2023/03/16 01:26:15;;;;;;;0.10;0.10;;;-0.30;99.90;230.40;231737.00;;;;5032070;28;20218;-72
2023/03/16 01:28:44;;;;;;;0.10;0.10;;;-0.30;99.90;230.40;231737.00;;;;5030086;28;20694;-72
2023/03/16 01:31:14;;;;;;;0.10;0.10;;;-0.40;99.90;230.40;231737.00;;;;5030570;28;20209;-72
2023/03/16 01:33:43;;;;;;;0.10;0.10;;;-0.30;99.90;230.40;231737.00;;;;5032851;28;20198;-72
2023/03/16 01:36:18;;;;;;;0.10;0.10;;;-0.30;99.90;230.40;231737.00;;;;5029337;28;20214;-72
2023/03/16 01:38:59;;;;;;;0.20;0.20;;;-0.20;99.90;230.40;231737.00;;;;5043849;28;20228;-72
2023/03/16 01:41:34;;;;;;;0.10;0.10;;;-0.20;99.90;230.40;231737.00;;;;5022076;28;20682;-72
2023/03/16 01:44:02;;;;;;;0.10;0.10;;;-0.20;99.90;230.40;231737.00;;;;5024609;28;20208;-74
2023/03/16 01:46:32;;;;;;;0.10;0.10;;;-0.20;99.90;230.40;231737.00;;;;5034327;28;20199;-72
2023/03/16 01:49:08;;;;;;;0.10;0.10;;;-0.10;99.90;230.40;231737.00;;;;5032582;28;20255;-73
2023/03/16 01:51:43;;;;;;;0.10;0.10;;;-0.30;99.90;230.40;231737.00;;;;5030302;28;20297;-72
2023/03/16 01:54:24;;;;;;;0.10;0.10;;;-0.40;99.90;230.40;231737.00;;;;5023890;28;20195;-72
2023/03/16 01:57:03;;;;;;;0.10;0.10;;;-0.40;99.90;230.40;231737.00;;;;5014868;28;20358;-71
2023/03/16 01:59:37;;;;;;;0.10;0.10;;;-0.40;99.90;230.40;231737.00;;;;5028849;28;20241;-74
2023/03/16 02:02:06;;;;;;;0.15;0.15;;;-0.50;99.90;230.40;231737.00;;;;5023200;28;20210;-71
2023/03/16 02:04:48;;;;;;;0.10;0.10;;;-0.70;99.90;230.40;231737.00;;;;5028065;28;20203;-71
2023/03/16 02:07:24;;;;;;;0.10;0.10;;;-0.70;99.90;230.40;231737.00;;;;5030692;28;20203;-71
2023/03/16 02:09:57;;;;;;;0.20;0.20;;;-0.50;99.90;230.40;231737.00;;;;5030901;28;20202;-72
2023/03/16 02:12:28;;;;;;;0.10;0.10;;;-0.60;99.90;230.40;231737.00;;;;5030567;28;20199;-72
2023/03/16 02:14:58;;;;;;;0.10;0.10;;;-0.50;99.90;230.40;231737.00;;;;5030852;28;20195;-71
2023/03/16 02:17:30;;;;;;;0.10;0.10;;;-0.50;99.90;230.40;231737.00;;;;5042600;28;20663;-71
2023/03/16 02:20:21;;;;;;;0.15;0.15;;;-0.60;99.90;230.40;231737.00;;;;5029518;28;20206;-71
2023/03/16 02:22:53;;;;;;;0.10;0.10;;;-0.50;99.90;230.40;231737.00;;;;5022309;28;20223;-71
2023/03/16 02:25:24;;;;;;;0.10;0.10;;;-0.60;99.90;230.40;231737.00;;;;5026951;28;20246;-71
2023/03/16 02:28:04;;;;;;;0.20;0.20;;;-0.50;99.90;230.40;231737.00;;;;5030473;28;20238;-71
2023/03/16 02:30:36;;;;;;;0.10;0.10;;;-0.50;99.90;230.40;231737.00;;;;5028811;28;20256;-71
2023/03/16 02:33:05;;;;;;;0.20;0.20;;;-0.70;99.90;230.40;231737.00;;;;5021143;28;20195;-71
2023/03/16 02:35:34;;;;;;;0.10;0.10;;;-0.60;99.90;230.40;231737.00;;;;5030368;28;20296;-71
2023/03/16 02:38:03;;;;;;;0.20;0.20;;;-0.70;99.90;230.40;231737.00;;;;5033166;28;20218;-71
2023/03/16 02:40:37;;;;;;;0.10;0.10;;;-0.60;99.90;230.40;231737.00;;;;5034371;28;20219;-71
2023/03/16 02:43:15;;;;;;;0.20;0.20;;;-0.80;99.90;230.40;231737.00;;;;5033268;28;20298;-71
2023/03/16 02:45:55;;;;;;;0.20;0.20;;;-0.70;99.90;230.40;231737.00;;;;5030226;28;20632;-71
2023/03/16 02:48:35;;;;;;;0.10;0.10;;;-0.80;99.90;230.40;231737.00;;;;5030962;28;20219;-71
2023/03/16 02:51:04;;;;;;;0.10;0.10;;;-0.90;99.90;230.40;231737.00;;;;5030962;28;20194;-71
2023/03/16 02:53:32;;;;;;;0.17;0.17;;;-1.00;99.90;230.40;231737.00;;;;5024894;28;20215;-72
2023/03/16 02:56:02;;;;;;;0.10;0.10;;;-1.10;99.90;230.40;231737.00;;;;5030011;28;20704;-72
2023/03/16 02:58:33;;;;;;;0.20;0.20;;;-1.20;99.90;230.40;231737.00;;;;5034585;28;20252;-72
2023/03/16 03:01:06;;;;;;;0.20;0.20;;;-1.10;99.90;230.40;231737.00;;;;5023307;28;20212;-71
2023/03/16 03:03:35;;;;;;;0.13;0.13;;;-1.10;99.90;230.40;231737.00;;;;5020288;28;20888;-71
2023/03/16 03:06:05;;;;;;;0.10;0.10;;;-1.10;99.90;230.40;231737.00;;;;5027519;28;20230;-71
2023/03/16 03:08:36;;;;;;;0.10;0.10;;;-1.10;99.90;230.40;231737.00;;;;5025897;28;20608;-71
2023/03/16 03:11:04;;;;;;;0.20;0.20;;;-1.10;99.90;230.40;231737.00;;;;5029397;28;20249;-72
2023/03/16 03:13:32;;;;;;;0.10;0.10;;;-1.00;99.90;230.40;231737.00;;;;5030083;28;20257;-72
2023/03/16 03:16:00;;;;;;;0.17;0.17;;;-1.00;99.90;230.40;231737.00;;;;5027607;28;20199;-73
2023/03/16 03:18:30;;;;;;;0.10;0.10;;;-1.10;99.90;230.40;231737.00;;;;5025956;28;20559;-72
2023/03/16 03:20:58;;;;;;;0.20;0.20;;;-1.10;99.90;230.40;231737.00;;;;5029198;28;20199;-72
2023/03/16 03:23:26;;;;;;;0.10;0.10;;;-1.10;99.90;230.40;231737.00;;;;5028529;28;20222;-72
2023/03/16 03:25:58;;;;;;;0.10;0.10;;;-1.10;99.90;230.40;231737.00;;;;5024972;28;20195;-72
2023/03/16 03:28:26;;;;;;;0.10;0.10;;;-1.00;99.90;230.40;231737.00;;;;5043435;28;20309;-72
2023/03/16 03:30:54;;;;;;;0.20;0.20;;;-1.00;99.90;230.40;231737.00;;;;5027185;28;20290;-72
2023/03/16 03:33:23;;;;;;;0.10;0.10;;;-1.00;99.90;230.40;231737.00;;;;5028270;28;20238;-72
2023/03/16 03:35:57;;;;;;;0.20;0.20;;;-1.00;99.90;230.40;231737.00;;;;5029740;28;20582;-71
2023/03/16 03:38:28;;;;;;;0.20;0.20;;;-0.90;99.90;230.40;231737.00;;;;5029356;28;20600;-71
2023/03/16 03:40:59;;;;;;;0.20;0.20;;;-1.00;99.90;230.40;231737.00;;;;5027085;28;20659;-72
2023/03/16 03:43:30;;;;;;;0.10;0.10;;;-1.20;99.90;230.40;231737.00;;;;5026973;28;20226;-72
2023/03/16 03:46:01;;;;;;;0.20;0.20;;;-1.10;99.90;230.40;231737.00;;;;5027133;28;20196;-72
2023/03/16 03:48:32;;;;;;;0.10;0.10;;;-1.10;99.90;230.40;231737.00;;;;5029911;28;20219;-72
2023/03/16 03:51:02;;;;;;;0.10;0.10;;;-1.00;99.90;230.40;231737.00;;;;5042965;28;20211;-72
2023/03/16 03:53:36;;;;;;;0.20;0.20;;;-1.10;99.90;230.40;231737.00;;;;5025108;28;20210;-72
2023/03/16 03:56:24;;;;;;;0.20;0.20;;;-1.20;99.90;230.40;231737.00;;;;5016058;28;20214;-72
2023/03/16 03:58:52;;;;;;;0.10;0.10;;;-1.20;99.90;230.40;231737.00;;;;5029603;28;20231;-72
2023/03/16 04:01:43;;;;;;;0.20;0.20;;;-1.20;99.90;230.40;231737.00;;;;5025009;28;20207;-72
2023/03/16 04:04:11;;;;;;;0.17;0.17;;;-1.30;99.90;230.40;231737.00;;;;5021192;28;20223;-72
2023/03/16 04:06:41;;;;;;;0.10;0.10;;;-1.20;99.90;230.40;231737.00;;;;5024122;28;20204;-72
2023/03/16 04:09:10;;;;;;;0.10;0.10;;;-1.10;99.90;230.40;231737.00;;;;5029368;28;20251;-72
2023/03/16 04:11:39;;;;;;;0.20;0.20;;;-1.00;99.90;230.40;231737.00;;;;5029614;28;20205;-72
2023/03/16 04:14:07;;;;;;;0.20;0.20;;;-1.20;99.90;230.40;231737.00;;;;5021195;28;20264;-72
2023/03/16 04:16:38;;;;;;;0.20;0.20;;;-1.20;99.90;230.40;231737.00;;;;5026938;28;20202;-72
2023/03/16 04:19:06;;;;;;;0.10;0.10;;;-1.30;99.90;230.40;231737.00;;;;5030969;28;20223;-72
2023/03/16 04:21:34;;;;;;;0.20;0.20;;;-1.40;99.90;230.40;231737.00;;;;5032387;28;20274;-72
2023/03/16 04:24:04;;;;;;;0.20;0.20;;;-1.50;99.90;230.40;231737.00;;;;5031668;28;20204;-72
2023/03/16 04:26:35;;;;;;;0.30;0.30;;;-1.50;99.90;230.40;231737.00;;;;5031980;28;20221;-72
2023/03/16 04:29:04;;;;;;;0.20;0.20;;;-1.60;99.90;230.40;231737.00;;;;5033590;28;20255;-72
2023/03/16 04:31:34;;;;;;;0.20;0.20;;;-1.60;99.90;230.40;231737.00;;;;5033081;28;20213;-72
2023/03/16 04:34:02;;;;;;;0.10;0.10;;;-1.50;99.90;230.40;231737.00;;;;5030737;28;20234;-72
2023/03/16 04:36:31;;;;;;;0.20;0.20;;;-1.40;99.90;230.40;231737.00;;;;5024235;28;20194;-73
2023/03/16 04:39:03;;;;;;;0.20;0.20;;;-1.40;99.90;230.40;231737.00;;;;5025838;28;20212;-72
2023/03/16 04:41:33;;;;;;;0.10;0.10;;;-1.60;99.90;230.40;231737.00;;;;5038255;28;20194;-72
2023/03/16 04:44:16;;;;;;;0.10;0.10;;;-1.60;99.90;230.40;231737.00;;;;5025000;28;20250;-72
2023/03/16 04:46:44;;;;;;;0.20;0.20;;;-1.60;99.90;230.40;231737.00;;;;5032589;28;20245;-72
2023/03/16 04:49:13;;;;;;;0.20;0.20;;;-1.60;99.90;230.40;231737.00;;;;5032674;28;20246;-72
2023/03/16 04:51:44;;;;;;;0.10;0.10;;;-1.70;99.90;230.40;231737.00;;;;5049213;28;20556;-72
2023/03/16 04:54:15;;;;;;;0.10;0.10;;;-1.70;99.90;230.40;231737.00;;;;5030526;28;20211;-72
2023/03/16 04:56:45;;;;;;;0.20;0.20;;;-1.80;99.90;230.40;231737.00;;;;5027336;28;20662;-73
2023/03/16 04:59:34;;;;;;;0.10;0.10;;;-1.80;99.90;230.40;231737.00;;;;5027741;28;20639;-73
2023/03/16 05:02:32;;;;;;;0.20;0.20;;;-1.80;99.90;230.40;231737.00;;;;5029777;28;20203;-73
2023/03/16 05:05:02;;;;;;;0.10;0.10;;;-1.80;99.90;230.40;231737.00;;;;5032236;28;20310;-73
2023/03/16 05:07:31;;;;;;;0.10;0.10;;;-1.80;99.90;230.40;231737.00;;;;5032770;28;20293;-73
2023/03/16 05:09:59;;;;;;;0.10;0.10;;;-1.90;99.90;230.40;231737.00;;;;5032150;28;20191;-73
2023/03/16 05:12:28;;;;;;;0.13;0.13;;;-1.90;99.90;230.40;231737.00;;;;5033899;28;20191;-73
2023/03/16 05:15:01;;;;;;;0.10;0.10;;;-1.90;99.90;230.40;231737.00;;;;5032202;28;20209;-73
2023/03/16 05:17:36;;;;;;;0.20;0.20;;;-1.90;99.90;230.40;231737.00;;;;5032671;28;20228;-73
2023/03/16 05:20:07;;;;;;;0.20;0.20;;;-1.90;99.90;230.40;231737.00;;;;5032128;28;20257;-73
2023/03/16 05:22:41;;;;;;;0.20;0.20;;;-2.00;99.90;230.40;231737.00;;;;5032522;28;20670;-73
2023/03/16 05:25:20;;;;;;;0.20;0.20;;;-2.00;99.90;230.40;231737.00;;;;5032103;28;20234;-73
2023/03/16 05:27:53;;;;;;;0.10;0.10;;;-2.10;99.90;230.40;231737.00;;;;5032393;28;20226;-73
2023/03/16 05:30:33;;;;;;;0.20;0.20;;;-2.10;99.90;230.40;231737.00;;;;5032208;28;20623;-73
2023/03/16 05:33:05;;;;;;;0.20;0.20;;;-2.00;99.90;230.40;231737.00;;;;5032732;28;20187;-72
2023/03/16 05:35:34;;;;;;;0.20;0.20;;;-2.00;99.90;230.40;231737.00;;;;5032283;28;20199;-73
2023/03/16 05:38:07;;;;;;;0.20;0.20;;;-2.00;99.90;230.40;231737.00;;;;5032265;28;20214;-73
2023/03/16 05:40:38;;;;;;;0.20;0.20;;;-2.00;99.90;230.40;231737.00;;;;5032124;28;20211;-73
2023/03/16 05:43:16;;;;;;;0.10;0.10;;;-2.00;99.90;230.40;231737.00;;;;5032082;28;20213;-72
2023/03/16 05:45:49;;;;;;;0.20;0.20;;;-2.00;99.90;230.40;231737.00;;;;5032279;28;20198;-72
2023/03/16 05:48:20;;;;;;;0.20;0.20;;;-2.10;99.90;230.40;231737.00;;;;5033654;28;20218;-73
2023/03/16 05:50:53;;;;;;;0.10;0.10;;;-2.10;99.90;230.40;231737.00;;;;5034046;28;20230;-72
2023/03/16 05:53:28;;;;;;;0.10;0.10;;;-2.10;99.90;230.40;231737.00;;;;5026198;28;20202;-72
2023/03/16 05:56:03;;;;;;;0.20;0.20;;;-2.10;99.90;230.40;231737.00;;;;5031727;28;20199;-72
2023/03/16 05:58:34;;;;;;;0.10;0.10;;;-2.10;99.90;230.40;231737.00;;;;5031609;28;20326;-72
2023/03/16 06:01:08;;;;;;;0.20;0.20;;;-2.10;99.90;230.40;231737.00;;;;5031546;28;20195;-72
2023/03/16 06:03:36;;;;;;;0.20;0.20;;;-2.00;99.90;230.40;231737.00;;;;5034167;28;20229;-72
2023/03/16 06:06:06;;;;;;;0.10;0.10;;;-1.90;99.90;230.40;231737.00;;;;5031489;28;20201;-72
2023/03/16 06:08:43;;;;;;;0.20;0.20;;;-1.90;99.90;230.40;231737.00;;;;5032609;28;20264;-72
2023/03/16 06:11:12;;;;;;;0.20;0.20;;;-1.80;99.90;230.40;231737.00;;;;5032691;28;20195;-72
2023/03/16 06:13:42;;;;;;;0.20;0.20;;;-1.80;99.90;230.40;231737.00;;;;5023469;28;20195;-73
2023/03/16 06:16:13;;;;;;;0.15;0.15;;;-1.80;99.90;230.40;231737.00;;;;5031111;28;20257;-72
2023/03/16 06:18:41;;;;;;;0.20;0.20;;;-1.80;99.90;230.40;231737.00;;;;5029398;28;20223;-72
2023/03/16 06:21:10;;;;;;;0.13;0.13;;;-1.70;99.90;230.40;231737.00;;;;5032702;28;20206;-72
2023/03/16 06:23:38;;;;;;;0.10;0.10;;;-1.60;99.90;230.40;231737.00;;;;5029458;28;20219;-72
2023/03/16 06:26:08;;;;;;;0.10;0.10;;;-1.60;99.90;230.40;231737.00;;;;5032732;28;20243;-72
2023/03/16 06:28:44;;;;;;;0.10;0.10;;;-1.60;99.90;230.40;231737.00;;;;5032060;28;20214;-72
2023/03/16 06:31:14;;;;;;;0.15;0.15;;;-1.60;99.90;230.40;231737.00;;;;5031994;28;20201;-73
2023/03/16 06:33:45;;;;;;;0.10;0.10;;;-1.60;99.90;230.40;231737.00;;;;5029795;28;20222;-72
2023/03/16 06:36:13;;;;;;;0.20;0.20;;;-1.60;99.90;230.40;231737.00;;;;5030187;28;20257;-72
2023/03/16 06:38:46;;;;;;;0.20;0.20;;;-1.50;99.90;230.40;231737.00;;;;5034911;28;20223;-72
2023/03/16 06:41:41;;;;;;;0.10;0.10;;;-1.50;99.90;230.40;231737.00;;;;5023289;28;20203;-72
2023/03/16 06:44:13;;;;;;;0.20;0.20;;;-1.40;99.90;230.40;231737.00;;;;5047225;28;20597;-72
2023/03/16 06:46:52;;;;;;;0.10;0.10;;;-1.30;99.90;230.40;231737.00;;;;5019759;28;20262;-72
2023/03/16 06:49:20;;;;;;;0.10;0.10;;;-1.30;99.90;230.40;231737.00;;;;5046817;28;20250;-72
2023/03/16 06:51:48;;;;;;;0.10;0.10;;;-1.30;99.90;230.40;231737.00;;;;5046742;28;20195;-72
2023/03/16 06:54:16;;;;;;;0.20;0.20;;;-1.20;99.90;230.40;231737.00;;;;5030719;28;20206;-73
2023/03/16 06:56:44;;;;;;;0.10;0.10;;;-1.20;99.90;230.40;231737.00;;;;5025663;28;20195;-72
2023/03/16 06:59:15;;;;;;;0.10;0.10;;;-1.10;99.90;230.40;231737.00;;;;5053790;22;20241;-72
2023/03/16 07:01:43;;;;;;;0.10;0.10;;;-1.00;99.90;230.40;231737.00;;;;5041169;28;20230;-72
2023/03/16 07:04:12;;;;;;;0.17;0.17;;;-0.90;99.90;230.40;231737.00;;;;5027037;28;20597;-72
2023/03/16 07:06:41;;;;;;;0.10;0.10;;;-0.90;99.90;230.40;231737.00;;;;5040404;28;20258;-72
2023/03/16 07:09:11;;;;;;;0.10;0.10;;;-0.70;99.90;230.40;231737.00;;;;5027063;28;20249;-72
2023/03/16 07:11:40;;;;;;;0.10;0.10;;;-0.70;99.90;230.40;231737.00;;;;5021916;28;20205;-72
2023/03/16 07:14:08;;;;;;;0.20;0.20;;;-0.70;99.90;230.40;231737.00;;;;5038373;28;20202;-72
2023/03/16 07:16:37;;;;;;;0.10;0.10;;;-0.60;99.90;230.40;231737.00;;;;5023043;28;20258;-72
2023/03/16 07:19:08;;;;;;;0.10;0.10;;;-0.50;99.90;230.40;231737.00;;;;5022532;28;20630;-71
2023/03/16 07:21:38;;;;;;;0.20;0.20;;;-0.50;99.90;230.40;231737.00;;;;5042049;28;20774;-72
2023/03/16 07:24:12;;;;;;;0.10;0.10;;;-0.40;99.90;230.40;231737.00;;;;5025643;28;20270;-72
2023/03/16 07:26:42;;;;;;;0.10;0.10;;;-0.40;99.90;230.40;231737.00;;;;5029086;28;20201;-71
2023/03/16 07:29:12;;;;;;;0.10;0.10;;;-0.30;99.90;230.40;231737.00;;;;5026751;28;20311;-72
2023/03/16 07:31:43;;;;;;;0.10;0.10;;;-0.20;99.90;230.40;231737.00;;;;5048238;28;20290;-72
2023/03/16 07:34:17;;;;;;;0.10;0.10;;;-0.20;99.90;230.40;231737.00;;;;5024784;28;20207;-72
2023/03/16 07:36:51;;;;;;;0.20;0.20;;;-0.10;99.90;230.40;231737.00;;;;5028769;28;20286;-72
2023/03/16 07:39:20;;;;;;;0.10;0.10;;;-0.10;99.90;230.40;231737.00;;;;5050236;28;20523;-72
2023/03/16 07:41:50;;;;;;;0.10;0.10;;;0.00;99.90;230.40;231737.00;;;;5049172;28;20300;-73
2023/03/16 07:44:31;;;;;;;0.10;0.10;;;0.10;99.90;230.40;231737.00;;;;5030793;28;20195;-72
2023/03/16 07:47:01;;;;;;;0.20;0.20;;;0.10;99.90;230.40;231737.00;;;;5032304;28;20195;-72
2023/03/16 07:49:31;;;;;;;0.10;0.10;;;0.20;99.90;230.40;231737.00;;;;5030207;28;20219;-72
2023/03/16 07:52:01;;;;;;;0.10;0.10;;;0.30;99.90;230.40;231737.00;;;;5046852;28;20607;-72
2023/03/16 07:54:37;;;;;;;0.20;0.20;;;0.30;99.90;230.40;231737.00;;;;5034043;28;20210;-72
2023/03/16 07:57:08;;;;;;;0.10;0.10;;;0.40;99.90;230.40;231737.00;;;;5036738;28;20662;-72
2023/03/16 07:59:42;;;;;;;0.17;0.17;;;0.50;99.90;230.40;231737.00;;;;5050142;28;20230;-72
2023/03/16 08:02:17;;;;;;;0.10;0.10;;;0.60;99.90;230.40;231737.00;;;;5043799;28;20196;-72
2023/03/16 08:04:46;;;;;;;0.10;0.10;;;0.60;99.90;230.40;231737.00;;;;5049013;28;20202;-73
2023/03/16 08:07:16;;;;;;;0.10;0.10;;;0.70;99.90;230.40;231737.00;;;;5041317;28;20230;-73
2023/03/16 08:10:16;;;;;;;0.10;0.10;;;0.80;99.90;230.40;231737.00;;;;5036097;28;20194;-73
2023/03/16 08:12:57;;;;;;;0.10;0.10;;;0.80;99.90;230.40;231737.00;;;;5050433;28;20206;-72
2023/03/16 08:15:26;;;;;;;0.20;0.20;;;0.90;99.90;230.40;231737.00;;;;5029459;28;20195;-72
2023/03/16 08:18:03;;;;;;;0.10;0.10;;;1.00;99.90;230.40;231737.00;;;;5026118;28;20224;-72
2023/03/16 08:20:31;;;;;;;0.10;0.10;;;1.00;99.90;230.40;231737.00;;;;5028478;28;20216;-72
2023/03/16 08:23:00;;;;;;;0.10;0.10;;;1.10;99.90;230.40;231737.00;;;;5029925;28;20230;-72
2023/03/16 08:25:35;;;;;;;0.10;0.10;;;1.00;99.90;230.40;231737.00;;;;5047026;28;20222;-72
2023/03/16 08:28:09;;;;;;;0.10;0.10;;;1.00;99.90;230.40;231737.00;;;;5033586;28;20597;-72
2023/03/16 08:30:45;;;;;;;0.10;0.10;;;1.10;99.90;230.40;231737.00;;;;5030744;28;20199;-72
2023/03/16 08:33:35;;;;;;;0.10;0.10;;;1.10;99.90;230.40;231737.00;;;;5034129;28;20214;-72
2023/03/16 08:36:07;;;;;;;0.20;0.20;;;1.20;99.90;230.40;231737.00;;;;5044942;28;20225;-72
2023/03/16 08:38:35;;;;;;;0.10;0.10;;;1.20;99.90;230.40;231737.00;;;;5033102;28;20288;-72
2023/03/16 08:41:08;;;;;;;0.10;0.10;;;1.20;99.90;230.40;231737.00;;;;5030593;28;20209;-73
2023/03/16 08:43:37;;;;;;;0.10;0.10;;;1.30;99.90;230.40;231737.00;;;;5031320;28;20238;-72
2023/03/16 08:46:05;;;;;;;0.10;0.10;;;1.40;99.90;230.40;231737.00;;;;5043764;28;20245;-73
2023/03/16 08:48:51;;;;;;;0.10;0.10;;;1.50;99.90;230.40;231737.00;;;;5032331;28;20215;-73
2023/03/16 08:51:19;;;;;;;0.10;0.10;;;1.60;99.90;230.40;231737.00;;;;5035609;28;20221;-71
2023/03/16 08:53:47;;;;;;;0.10;0.10;;;1.60;99.90;230.40;231737.00;;;;5030351;28;20196;-72
2023/03/16 08:56:15;;;;;;;0.20;0.20;;;1.70;99.90;230.40;231737.00;;;;5031244;28;20203;-71
2023/03/16 08:58:44;;;;;;;0.10;0.10;;;1.80;99.90;230.40;231737.00;;;;5026425;28;20251;-71
2023/03/16 09:01:16;;;;;;;0.10;0.10;;;1.90;99.90;230.40;231737.00;;;;5035326;28;20225;-72
2023/03/16 09:03:45;;;;;;;0.20;0.20;;;2.00;99.90;230.40;231737.00;;;;5027423;28;20211;-72
2023/03/16 09:06:16;;;;;;;0.10;0.10;;;2.00;99.90;230.40;231737.00;;;;5028092;28;20222;-72
2023/03/16 09:08:46;;;;;;;0.10;0.10;;;2.20;99.90;230.40;231737.00;;;;5041563;28;20286;-72
2023/03/16 09:11:17;;;;;;;0.10;0.10;;;2.30;99.90;230.40;231737.00;;;;5031644;28;20563;-72
2023/03/16 09:13:46;;;;;;;0.10;0.10;;;2.40;99.90;230.40;231737.00;;;;5034918;28;20203;-72
2023/03/16 09:16:15;;;;;;;0.10;0.10;;;2.50;99.90;230.40;231737.00;;;;5029718;28;20277;-72
2023/03/16 09:18:43;;;;;;;0.10;0.10;;;2.50;99.90;230.40;231737.00;;;;5035026;28;20225;-71
2023/03/16 09:21:13;;;;;;;0.10;0.10;;;2.60;99.90;230.40;231737.00;;;;5036300;28;20635;-72
2023/03/16 09:23:42;;;;;;;0.10;0.10;;;2.80;99.90;230.40;231737.00;;;;5035381;28;20266;-71
2023/03/16 09:26:13;;;;;;;0.10;0.10;;;2.80;99.90;230.40;231737.00;;;;5031699;28;20223;-72
2023/03/16 09:28:42;;;;;;;0.10;0.10;;;2.90;99.90;230.40;231737.00;;;;5034611;28;20302;-73
2023/03/16 09:31:17;;;;;;;0.10;0.10;;;3.00;99.90;230.40;231737.00;;;;5049878;28;20211;-71
2023/03/16 09:33:46;;;;;;;0.10;0.10;;;2.90;99.90;230.40;231737.00;;;;5034429;28;20207;-71
2023/03/16 09:36:16;;;;;;;0.10;0.10;;;3.00;99.90;230.40;231737.00;;;;5036704;28;20199;-71
2023/03/16 09:38:44;;;;;;;0.10;0.10;;;3.10;99.90;230.40;231737.00;;;;5028144;28;20221;-71
2023/03/16 09:41:33;;;;;;;0.10;0.10;;;3.10;99.90;230.40;231737.00;;;;5034829;28;20207;-71
2023/03/16 09:44:21;;;;;;;0.10;0.10;;;3.20;99.90;230.40;231737.00;;;;5037936;28;20203;-72
2023/03/16 09:46:51;;;;;;;0.10;0.10;;;3.20;99.90;230.40;231737.00;;;;5028507;28;20227;-72
2023/03/16 09:49:24;;;;;;;0.10;0.10;;;3.40;99.90;230.40;231737.00;;;;5037478;28;20219;-72
2023/03/16 09:52:04;;;;;;;0.10;0.10;;;3.50;99.90;230.40;231737.00;;;;5036503;28;20199;-72
2023/03/16 09:54:42;;;;;;;0.10;0.10;;;3.60;99.90;230.40;231737.00;;;;5030247;28;20201;-71
2023/03/16 09:57:24;;;;;;;0.10;0.10;;;3.70;99.90;230.40;231737.00;;;;5033204;28;20569;-72
2023/03/16 09:59:52;;;;;;;0.10;0.10;;;3.90;99.90;230.40;231737.00;;;;5051050;28;20249;-73
2023/03/16 10:02:48;;;;;;;0.10;0.10;;;4.00;99.90;230.40;231737.00;;;;5060205;28;20191;-72
2023/03/16 10:05:21;;;;;;;0.10;0.10;;;4.10;99.90;230.40;231737.00;;;;5047652;28;20209;-72
2023/03/16 10:08:06;;;;;;;0.10;0.10;;;4.20;99.90;230.40;231737.00;;;;5038883;28;20245;-72
2023/03/16 10:10:55;;;;;;;0.10;0.10;;;4.30;99.90;230.40;231737.00;;;;5054738;28;20613;-72
2023/03/16 10:13:35;;;;;;;0.10;0.10;;;4.50;99.90;230.40;231737.00;;;;5051468;28;20216;-72
2023/03/16 10:16:10;;;;;;;0.10;0.10;;;4.30;99.90;230.40;231737.00;;;;5051683;28;20198;-72
2023/03/16 10:18:44;;;;;;;0.10;0.10;;;4.50;99.90;230.40;231737.00;;;;5048123;28;20581;-72
2023/03/16 10:21:15;;;;;;;0.10;0.10;;;4.50;99.90;230.40;231737.00;;;;5051758;28;20576;-73
2023/03/16 10:23:47;;;;;;;0.10;0.10;;;4.50;99.90;230.40;231737.00;;;;5044014;28;20233;-72
2023/03/16 10:26:22;;;;;;;0.10;0.10;;;4.50;99.90;230.40;231737.00;;;;5057291;28;20233;-72
2023/03/16 10:28:51;;;;;;;0.10;0.10;;;4.60;99.90;230.40;231737.00;;;;5057662;28;20226;-72
2023/03/16 10:31:23;;;;;;;0.10;0.10;;;4.60;99.90;230.40;231737.00;;;;5048573;28;20228;-72
2023/03/16 10:34:00;;;;;;;0.10;0.10;;;4.80;99.90;230.40;231737.00;;;;5056425;28;20223;-73
2023/03/16 10:36:33;;;;;;;0.10;0.10;;;4.80;99.90;230.40;231737.00;;;;5056919;28;20252;-72
2023/03/16 10:39:07;;;;;;;0.10;0.10;;;4.90;99.90;230.40;231737.00;;;;5059468;28;20210;-72
2023/03/16 10:41:38;;;;;;;0.10;0.10;;;5.00;99.90;230.40;231737.00;;;;5056565;28;20556;-72
2023/03/16 10:44:12;;;;;;;0.13;0.13;;;5.10;99.90;230.40;231737.00;;;;5037228;28;20668;-72
2023/03/16 10:46:44;;;;;;;0.10;0.10;;;5.20;99.90;230.40;231737.00;;;;5059811;28;20221;-72
2023/03/16 10:49:24;;;;;;;0.10;0.10;;;5.20;99.90;230.40;231737.00;;;;5052886;28;20272;-72
2023/03/16 10:51:54;;;;;;;0.10;0.10;;;5.40;99.90;230.40;231737.00;;;;5051650;28;20209;-72
2023/03/16 10:54:30;;;;;;;0.10;0.10;;;5.40;99.90;230.40;231737.00;;;;5055730;28;20195;-72
2023/03/16 10:57:00;;;;;;;0.10;0.10;;;5.50;99.90;230.40;231737.00;;;;5055661;28;20618;-72
2023/03/16 10:59:33;;;;;;;0.10;0.10;;;5.60;99.90;230.40;231737.00;;;;5056370;28;20281;-72
2023/03/16 11:02:11;;;;;;;0.10;0.10;;;5.70;99.90;230.40;231737.00;;;;5060338;28;20257;-72
2023/03/16 11:04:39;;;;;;;0.10;0.10;;;5.70;99.90;230.40;231737.00;;;;5046518;28;20232;-73